Lexington, Tennessee
Current Conditions -  °F | °C
As of 4:35 AM on Saturday 20 Dec 2014 (Local Time) from KPVE Reporting Station
Broken Clouds Broken Clouds  
Wind Chill: 25°   Ceiling: 6000
Heat Index: 30°   Visibility: 8mi
Dew Point: 27°   Wind: 5mph
Humidity: 86%   Direction: 30°NNE
Pressure: 30.21"   Gusts: NA
Location:  35.65°N, 88.39°W
Report Text: KPVE 201035Z AUTO 03004KT 8SM BKN060 M01/M03 A3021 RMK
Loading
Personal Weather Stations






























Interactive Weather Map New forecast layout! Learn more

10-Day Weather Forecast

Advertisements
Track Severe Weather on mobile